sensor_id;sensor_type;location;lat;lon;timestamp;temperature;humidity
13835;DHT22;6988;52.614;13.500;2023-08-21T00:00:56;20.10;99.90
13835;DHT22;6988;52.614;13.500;2023-08-21T00:05:48;20.00;99.90
13835;DHT22;6988;52.614;13.500;2023-08-21T00:10:39;19.90;99.90
13835;DHT22;6988;52.614;13.500;2023-08-21T00:15:32;19.80;99.90
13835;DHT22;6988;52.614;13.500;2023-08-21T00:20:25;19.70;99.90
13835;DHT22;6988;52.614;13.500;2023-08-21T00:25:17;19.70;99.90
13835;DHT22;6988;52.614;13.500;2023-08-21T00:30:10;19.70;99.90
13835;DHT22;6988;52.614;13.500;2023-08-21T00:35:07;19.70;99.90
13835;DHT22;6988;52.614;13.500;2023-08-21T00:40:00;19.70;99.90
13835;DHT22;6988;52.614;13.500;2023-08-21T00:44:53;19.70;99.90
13835;DHT22;6988;52.614;13.500;2023-08-21T00:49:45;19.70;99.90
13835;DHT22;6988;52.614;13.500;2023-08-21T00:54:37;19.70;99.90
13835;DHT22;6988;52.614;13.500;2023-08-21T00:59:31;19.70;99.90
13835;DHT22;6988;52.614;13.500;2023-08-21T01:04:23;19.70;99.90
13835;DHT22;6988;52.614;13.500;2023-08-21T01:09:22;19.60;99.90
13835;DHT22;6988;52.614;13.500;2023-08-21T01:14:26;19.60;99.90
13835;DHT22;6988;52.614;13.500;2023-08-21T01:19:30;19.50;99.90
13835;DHT22;6988;52.614;13.500;2023-08-21T01:24:28;19.30;99.90
13835;DHT22;6988;52.614;13.500;2023-08-21T01:29:20;19.40;99.90
13835;DHT22;6988;52.614;13.500;2023-08-21T01:34:14;19.30;99.90
13835;DHT22;6988;52.614;13.500;2023-08-21T01:39:07;19.30;99.90
13835;DHT22;6988;52.614;13.500;2023-08-21T01:44:00;19.20;99.90
13835;DHT22;6988;52.614;13.500;2023-08-21T01:48:52;19.20;99.90
13835;DHT22;6988;52.614;13.500;2023-08-21T01:53:44;19.20;99.90
13835;DHT22;6988;52.614;13.500;2023-08-21T01:58:36;19.30;99.90
13835;DHT22;6988;52.614;13.500;2023-08-21T02:03:29;19.40;99.90
13835;DHT22;6988;52.614;13.500;2023-08-21T02:08:21;19.40;99.90
13835;DHT22;6988;52.614;13.500;2023-08-21T02:13:14;19.40;99.90
13835;DHT22;6988;52.614;13.500;2023-08-21T02:18:06;19.70;99.90
13835;DHT22;6988;52.614;13.500;2023-08-21T02:22:59;19.70;99.90
13835;DHT22;6988;52.614;13.500;2023-08-21T02:27:51;19.70;99.90
13835;DHT22;6988;52.614;13.500;2023-08-21T02:32:43;19.80;99.90
13835;DHT22;6988;52.614;13.500;2023-08-21T02:37:35;19.80;99.90
13835;DHT22;6988;52.614;13.500;2023-08-21T02:42:30;19.70;99.90
13835;DHT22;6988;52.614;13.500;2023-08-21T02:47:22;19.70;99.90
13835;DHT22;6988;52.614;13.500;2023-08-21T02:52:14;19.60;99.90
13835;DHT22;6988;52.614;13.500;2023-08-21T02:57:06;19.60;99.90
13835;DHT22;6988;52.614;13.500;2023-08-21T03:01:59;19.60;99.90
13835;DHT22;6988;52.614;13.500;2023-08-21T03:06:51;19.60;99.90
13835;DHT22;6988;52.614;13.500;2023-08-21T03:11:43;19.70;99.90
13835;DHT22;6988;52.614;13.500;2023-08-21T03:16:34;19.70;99.90
13835;DHT22;6988;52.614;13.500;2023-08-21T03:21:28;19.80;99.90
13835;DHT22;6988;52.614;13.500;2023-08-21T03:26:21;19.80;99.90
13835;DHT22;6988;52.614;13.500;2023-08-21T03:31:14;19.80;99.90
13835;DHT22;6988;52.614;13.500;2023-08-21T03:36:06;19.80;99.90
13835;DHT22;6988;52.614;13.500;2023-08-21T03:41:02;19.80;99.90
13835;DHT22;6988;52.614;13.500;2023-08-21T03:45:56;19.80;99.90
13835;DHT22;6988;52.614;13.500;2023-08-21T03:50:49;19.90;99.90
13835;DHT22;6988;52.614;13.500;2023-08-21T03:55:42;19.90;99.90
13835;DHT22;6988;52.614;13.500;2023-08-21T04:00:35;19.80;99.90
13835;DHT22;6988;52.614;13.500;2023-08-21T04:05:27;19.70;99.90
13835;DHT22;6988;52.614;13.500;2023-08-21T04:10:18;19.70;99.90
13835;DHT22;6988;52.614;13.500;2023-08-21T04:15:10;19.70;99.90
13835;DHT22;6988;52.614;13.500;2023-08-21T04:20:04;19.70;99.90
13835;DHT22;6988;52.614;13.500;2023-08-21T04:25:00;19.80;99.90
13835;DHT22;6988;52.614;13.500;2023-08-21T04:29:53;19.80;99.90
13835;DHT22;6988;52.614;13.500;2023-08-21T04:34:44;19.80;99.90
13835;DHT22;6988;52.614;13.500;2023-08-21T04:39:38;19.80;99.90
13835;DHT22;6988;52.614;13.500;2023-08-21T04:44:30;19.90;99.90
13835;DHT22;6988;52.614;13.500;2023-08-21T04:49:22;19.90;99.90
13835;DHT22;6988;52.614;13.500;2023-08-21T04:54:14;19.90;99.90
13835;DHT22;6988;52.614;13.500;2023-08-21T04:59:07;20.00;99.90
13835;DHT22;6988;52.614;13.500;2023-08-21T05:03:59;20.00;99.90
13835;DHT22;6988;52.614;13.500;2023-08-21T05:08:51;20.10;99.90
13835;DHT22;6988;52.614;13.500;2023-08-21T05:13:44;20.10;99.90
13835;DHT22;6988;52.614;13.500;2023-08-21T05:18:39;20.10;99.90
13835;DHT22;6988;52.614;13.500;2023-08-21T05:23:31;20.20;99.90
13835;DHT22;6988;52.614;13.500;2023-08-21T05:28:27;20.30;99.90
13835;DHT22;6988;52.614;13.500;2023-08-21T05:33:19;20.40;99.90
13835;DHT22;6988;52.614;13.500;2023-08-21T05:38:16;20.40;99.90
13835;DHT22;6988;52.614;13.500;2023-08-21T05:43:08;20.50;99.90
13835;DHT22;6988;52.614;13.500;2023-08-21T05:48:03;20.70;99.90
13835;DHT22;6988;52.614;13.500;2023-08-21T05:52:55;20.80;99.90
13835;DHT22;6988;52.614;13.500;2023-08-21T05:57:49;20.90;99.90
13835;DHT22;6988;52.614;13.500;2023-08-21T06:02:43;21.00;99.90
13835;DHT22;6988;52.614;13.500;2023-08-21T06:07:52;21.10;99.90
13835;DHT22;6988;52.614;13.500;2023-08-21T06:12:44;21.30;99.90
13835;DHT22;6988;52.614;13.500;2023-08-21T06:17:37;21.20;99.90
13835;DHT22;6988;52.614;13.500;2023-08-21T06:22:30;21.30;99.90
13835;DHT22;6988;52.614;13.500;2023-08-21T06:27:23;21.40;99.90
13835;DHT22;6988;52.614;13.500;2023-08-21T06:32:14;21.50;99.90
13835;DHT22;6988;52.614;13.500;2023-08-21T06:37:09;21.70;99.90
13835;DHT22;6988;52.614;13.500;2023-08-21T06:42:01;22.00;99.90
13835;DHT22;6988;52.614;13.500;2023-08-21T06:47:01;22.10;99.90
13835;DHT22;6988;52.614;13.500;2023-08-21T06:51:53;22.30;99.90
13835;DHT22;6988;52.614;13.500;2023-08-21T06:56:47;22.60;99.90
13835;DHT22;6988;52.614;13.500;2023-08-21T07:01:39;23.00;99.90
13835;DHT22;6988;52.614;13.500;2023-08-21T07:06:31;23.40;99.90
13835;DHT22;6988;52.614;13.500;2023-08-21T07:11:23;23.40;99.90
13835;DHT22;6988;52.614;13.500;2023-08-21T07:16:16;23.60;99.90
13835;DHT22;6988;52.614;13.500;2023-08-21T07:21:07;24.00;99.90
13835;DHT22;6988;52.614;13.500;2023-08-21T07:26:01;24.50;99.90
13835;DHT22;6988;52.614;13.500;2023-08-21T07:30:55;24.80;99.90
13835;DHT22;6988;52.614;13.500;2023-08-21T07:35:56;24.60;99.90
13835;DHT22;6988;52.614;13.500;2023-08-21T07:40:49;24.90;99.90
13835;DHT22;6988;52.614;13.500;2023-08-21T07:45:40;25.30;99.90
13835;DHT22;6988;52.614;13.500;2023-08-21T07:50:32;25.50;99.90
13835;DHT22;6988;52.614;13.500;2023-08-21T07:55:25;26.10;99.90
13835;DHT22;6988;52.614;13.500;2023-08-21T08:00:17;26.50;99.90
13835;DHT22;6988;52.614;13.500;2023-08-21T08:05:10;26.90;99.90
13835;DHT22;6988;52.614;13.500;2023-08-21T08:10:02;26.80;99.90
13835;DHT22;6988;52.614;13.500;2023-08-21T08:14:55;26.60;99.90
13835;DHT22;6988;52.614;13.500;2023-08-21T08:19:46;26.70;99.90
13835;DHT22;6988;52.614;13.500;2023-08-21T08:24:38;26.70;99.90
13835;DHT22;6988;52.614;13.500;2023-08-21T08:29:32;26.30;99.90
13835;DHT22;6988;52.614;13.500;2023-08-21T08:34:25;26.20;99.90
13835;DHT22;6988;52.614;13.500;2023-08-21T08:39:16;26.20;99.90
13835;DHT22;6988;52.614;13.500;2023-08-21T08:44:08;26.20;99.90
13835;DHT22;6988;52.614;13.500;2023-08-21T08:49:01;26.30;99.90
13835;DHT22;6988;52.614;13.500;2023-08-21T08:53:55;27.00;99.90
13835;DHT22;6988;52.614;13.500;2023-08-21T08:58:50;27.50;99.90
13835;DHT22;6988;52.614;13.500;2023-08-21T09:03:42;27.50;99.90
13835;DHT22;6988;52.614;13.500;2023-08-21T09:08:34;27.60;99.90
13835;DHT22;6988;52.614;13.500;2023-08-21T09:13:27;28.30;99.90
13835;DHT22;6988;52.614;13.500;2023-08-21T09:18:19;28.60;99.90
13835;DHT22;6988;52.614;13.500;2023-08-21T09:23:13;28.50;99.90
13835;DHT22;6988;52.614;13.500;2023-08-21T09:28:07;28.30;99.90
13835;DHT22;6988;52.614;13.500;2023-08-21T09:33:01;28.40;99.90
13835;DHT22;6988;52.614;13.500;2023-08-21T09:37:55;28.70;99.90
13835;DHT22;6988;52.614;13.500;2023-08-21T09:42:51;29.20;99.90
13835;DHT22;6988;52.614;13.500;2023-08-21T09:47:44;29.50;99.90
13835;DHT22;6988;52.614;13.500;2023-08-21T09:52:37;29.80;99.90
13835;DHT22;6988;52.614;13.500;2023-08-21T09:57:29;29.70;99.90
13835;DHT22;6988;52.614;13.500;2023-08-21T10:02:23;29.40;99.90
13835;DHT22;6988;52.614;13.500;2023-08-21T10:07:16;29.00;99.90
13835;DHT22;6988;52.614;13.500;2023-08-21T10:12:14;29.00;99.90
13835;DHT22;6988;52.614;13.500;2023-08-21T10:17:09;29.20;99.90
13835;DHT22;6988;52.614;13.500;2023-08-21T10:22:01;29.90;99.90
13835;DHT22;6988;52.614;13.500;2023-08-21T10:26:53;30.30;99.90
13835;DHT22;6988;52.614;13.500;2023-08-21T10:31:58;30.30;99.90
13835;DHT22;6988;52.614;13.500;2023-08-21T10:37:07;30.10;99.90
13835;DHT22;6988;52.614;13.500;2023-08-21T10:42:05;29.50;99.30
13835;DHT22;6988;52.614;13.500;2023-08-21T10:47:13;29.00;99.90
13835;DHT22;6988;52.614;13.500;2023-08-21T10:52:07;29.30;99.90
13835;DHT22;6988;52.614;13.500;2023-08-21T10:57:02;30.10;99.90
13835;DHT22;6988;52.614;13.500;2023-08-21T11:01:53;30.70;99.60
13835;DHT22;6988;52.614;13.500;2023-08-21T11:06:51;30.40;98.60
13835;DHT22;6988;52.614;13.500;2023-08-21T11:11:43;30.30;99.90
13835;DHT22;6988;52.614;13.500;2023-08-21T11:16:35;30.10;99.40
13835;DHT22;6988;52.614;13.500;2023-08-21T11:21:27;29.80;99.90
13835;DHT22;6988;52.614;13.500;2023-08-21T11:26:21;29.40;99.90
13835;DHT22;6988;52.614;13.500;2023-08-21T11:31:13;29.00;99.90
13835;DHT22;6988;52.614;13.500;2023-08-21T11:36:06;29.10;99.90
13835;DHT22;6988;52.614;13.500;2023-08-21T11:40:59;29.50;99.90
13835;DHT22;6988;52.614;13.500;2023-08-21T11:45:54;29.80;97.40
13835;DHT22;6988;52.614;13.500;2023-08-21T11:50:48;29.30;98.30
13835;DHT22;6988;52.614;13.500;2023-08-21T11:55:40;28.90;99.90
13835;DHT22;6988;52.614;13.500;2023-08-21T12:00:32;28.60;99.90
13835;DHT22;6988;52.614;13.500;2023-08-21T12:05:26;28.30;99.90
13835;DHT22;6988;52.614;13.500;2023-08-21T12:10:22;28.20;99.90
13835;DHT22;6988;52.614;13.500;2023-08-21T12:15:15;28.10;99.90
13835;DHT22;6988;52.614;13.500;2023-08-21T12:20:08;28.10;99.90
13835;DHT22;6988;52.614;13.500;2023-08-21T12:25:04;28.30;99.90
13835;DHT22;6988;52.614;13.500;2023-08-21T12:29:56;28.60;99.90
13835;DHT22;6988;52.614;13.500;2023-08-21T12:34:48;29.10;99.90
13835;DHT22;6988;52.614;13.500;2023-08-21T12:39:39;29.30;99.90
13835;DHT22;6988;52.614;13.500;2023-08-21T12:44:32;29.20;99.90
13835;DHT22;6988;52.614;13.500;2023-08-21T12:49:24;29.10;99.90
13835;DHT22;6988;52.614;13.500;2023-08-21T12:54:16;28.80;99.90
13835;DHT22;6988;52.614;13.500;2023-08-21T12:59:08;28.40;99.90
13835;DHT22;6988;52.614;13.500;2023-08-21T13:04:01;28.30;99.90
13835;DHT22;6988;52.614;13.500;2023-08-21T13:08:54;28.50;99.90
13835;DHT22;6988;52.614;13.500;2023-08-21T13:13:46;29.10;99.90
13835;DHT22;6988;52.614;13.500;2023-08-21T13:18:37;29.60;97.20
13835;DHT22;6988;52.614;13.500;2023-08-21T13:23:31;30.10;95.60
13835;DHT22;6988;52.614;13.500;2023-08-21T13:28:24;29.80;95.30
13835;DHT22;6988;52.614;13.500;2023-08-21T13:33:16;29.60;96.20
13835;DHT22;6988;52.614;13.500;2023-08-21T13:38:08;29.40;97.30
13835;DHT22;6988;52.614;13.500;2023-08-21T13:43:01;29.30;97.60
13835;DHT22;6988;52.614;13.500;2023-08-21T13:47:53;29.60;97.40
13835;DHT22;6988;52.614;13.500;2023-08-21T13:52:46;29.70;96.70
13835;DHT22;6988;52.614;13.500;2023-08-21T13:57:38;29.90;97.30
13835;DHT22;6988;52.614;13.500;2023-08-21T14:02:31;30.20;96.80
13835;DHT22;6988;52.614;13.500;2023-08-21T14:07:23;30.60;96.00
13835;DHT22;6988;52.614;13.500;2023-08-21T14:12:15;30.90;95.90
13835;DHT22;6988;52.614;13.500;2023-08-21T14:17:06;31.00;95.10
13835;DHT22;6988;52.614;13.500;2023-08-21T14:22:00;30.70;94.90
13835;DHT22;6988;52.614;13.500;2023-08-21T14:26:51;30.20;94.40
13835;DHT22;6988;52.614;13.500;2023-08-21T14:31:43;30.50;95.10
13835;DHT22;6988;52.614;13.500;2023-08-21T14:36:37;30.40;93.30
13835;DHT22;6988;52.614;13.500;2023-08-21T14:41:30;30.40;94.90
13835;DHT22;6988;52.614;13.500;2023-08-21T14:46:22;30.30;95.00
13835;DHT22;6988;52.614;13.500;2023-08-21T14:51:13;30.20;95.70
13835;DHT22;6988;52.614;13.500;2023-08-21T14:56:05;30.40;96.30
13835;DHT22;6988;52.614;13.500;2023-08-21T15:00:58;30.50;95.50
13835;DHT22;6988;52.614;13.500;2023-08-21T15:05:50;30.30;95.10
13835;DHT22;6988;52.614;13.500;2023-08-21T15:10:42;30.20;94.50
13835;DHT22;6988;52.614;13.500;2023-08-21T15:15:34;30.00;96.50
13835;DHT22;6988;52.614;13.500;2023-08-21T15:20:27;29.90;95.90
13835;DHT22;6988;52.614;13.500;2023-08-21T15:25:19;29.70;95.30
13835;DHT22;6988;52.614;13.500;2023-08-21T15:30:11;29.60;94.60
13835;DHT22;6988;52.614;13.500;2023-08-21T15:35:04;29.30;95.60
13835;DHT22;6988;52.614;13.500;2023-08-21T15:39:58;29.00;96.00
13835;DHT22;6988;52.614;13.500;2023-08-21T15:44:50;28.80;96.60
13835;DHT22;6988;52.614;13.500;2023-08-21T15:49:42;28.70;97.80
13835;DHT22;6988;52.614;13.500;2023-08-21T15:54:34;28.60;97.30
13835;DHT22;6988;52.614;13.500;2023-08-21T15:59:27;28.50;98.10
13835;DHT22;6988;52.614;13.500;2023-08-21T16:04:19;28.50;97.70
13835;DHT22;6988;52.614;13.500;2023-08-21T16:09:10;28.40;97.10
13835;DHT22;6988;52.614;13.500;2023-08-21T16:14:02;28.20;97.30
13835;DHT22;6988;52.614;13.500;2023-08-21T16:18:59;28.00;97.80
13835;DHT22;6988;52.614;13.500;2023-08-21T16:23:51;27.80;98.30
13835;DHT22;6988;52.614;13.500;2023-08-21T16:28:43;27.50;98.10
13835;DHT22;6988;52.614;13.500;2023-08-21T16:33:35;27.40;99.30
13835;DHT22;6988;52.614;13.500;2023-08-21T16:38:28;27.00;99.90
13835;DHT22;6988;52.614;13.500;2023-08-21T16:43:20;26.90;99.90
13835;DHT22;6988;52.614;13.500;2023-08-21T16:48:12;26.70;99.40
13835;DHT22;6988;52.614;13.500;2023-08-21T16:53:03;26.60;99.90
13835;DHT22;6988;52.614;13.500;2023-08-21T16:57:56;26.40;99.90
13835;DHT22;6988;52.614;13.500;2023-08-21T17:02:48;26.30;99.90
13835;DHT22;6988;52.614;13.500;2023-08-21T17:07:41;26.10;99.90
13835;DHT22;6988;52.614;13.500;2023-08-21T17:12:34;26.10;99.90
13835;DHT22;6988;52.614;13.500;2023-08-21T17:17:28;25.90;99.90
13835;DHT22;6988;52.614;13.500;2023-08-21T17:22:19;25.70;99.90
13835;DHT22;6988;52.614;13.500;2023-08-21T17:27:11;25.50;99.90
13835;DHT22;6988;52.614;13.500;2023-08-21T17:32:08;25.30;99.90
13835;DHT22;6988;52.614;13.500;2023-08-21T17:37:02;25.20;99.90
13835;DHT22;6988;52.614;13.500;2023-08-21T17:41:54;25.00;99.90
13835;DHT22;6988;52.614;13.500;2023-08-21T17:46:46;24.90;99.90
13835;DHT22;6988;52.614;13.500;2023-08-21T17:51:38;24.70;99.90
13835;DHT22;6988;52.614;13.500;2023-08-21T17:56:31;24.60;99.90
13835;DHT22;6988;52.614;13.500;2023-08-21T18:01:23;24.50;99.90
13835;DHT22;6988;52.614;13.500;2023-08-21T18:06:15;24.40;99.90
13835;DHT22;6988;52.614;13.500;2023-08-21T18:11:09;24.30;99.90
13835;DHT22;6988;52.614;13.500;2023-08-21T18:16:02;24.10;99.90
13835;DHT22;6988;52.614;13.500;2023-08-21T18:20:54;24.00;99.90
13835;DHT22;6988;52.614;13.500;2023-08-21T18:25:46;23.80;99.90
13835;DHT22;6988;52.614;13.500;2023-08-21T18:30:40;23.60;99.90
13835;DHT22;6988;52.614;13.500;2023-08-21T18:35:34;23.50;99.90
13835;DHT22;6988;52.614;13.500;2023-08-21T18:40:27;23.30;99.90
13835;DHT22;6988;52.614;13.500;2023-08-21T18:45:19;23.20;99.90
13835;DHT22;6988;52.614;13.500;2023-08-21T18:50:11;23.00;99.90
13835;DHT22;6988;52.614;13.500;2023-08-21T18:55:05;22.90;99.90
13835;DHT22;6988;52.614;13.500;2023-08-21T18:59:57;22.90;99.90
13835;DHT22;6988;52.614;13.500;2023-08-21T19:04:49;22.80;99.90
13835;DHT22;6988;52.614;13.500;2023-08-21T19:09:41;22.70;99.90
13835;DHT22;6988;52.614;13.500;2023-08-21T19:14:34;22.60;99.90
13835;DHT22;6988;52.614;13.500;2023-08-21T19:19:26;22.40;99.90
13835;DHT22;6988;52.614;13.500;2023-08-21T19:24:18;22.30;99.90
13835;DHT22;6988;52.614;13.500;2023-08-21T19:29:10;22.20;99.90
13835;DHT22;6988;52.614;13.500;2023-08-21T19:34:03;21.90;99.90
13835;DHT22;6988;52.614;13.500;2023-08-21T19:38:54;21.80;99.90
13835;DHT22;6988;52.614;13.500;2023-08-21T19:43:46;21.60;99.90
13835;DHT22;6988;52.614;13.500;2023-08-21T19:48:38;21.40;99.90
13835;DHT22;6988;52.614;13.500;2023-08-21T19:53:31;21.30;99.90
13835;DHT22;6988;52.614;13.500;2023-08-21T19:58:23;21.20;99.90
13835;DHT22;6988;52.614;13.500;2023-08-21T20:03:15;21.10;99.90
13835;DHT22;6988;52.614;13.500;2023-08-21T20:08:07;21.10;99.90
13835;DHT22;6988;52.614;13.500;2023-08-21T20:13:00;21.00;99.90
13835;DHT22;6988;52.614;13.500;2023-08-21T20:17:52;20.90;99.90
13835;DHT22;6988;52.614;13.500;2023-08-21T20:22:43;20.90;99.90
13835;DHT22;6988;52.614;13.500;2023-08-21T20:27:35;20.80;99.90
13835;DHT22;6988;52.614;13.500;2023-08-21T20:32:29;20.70;99.90
13835;DHT22;6988;52.614;13.500;2023-08-21T20:37:22;20.60;99.90
13835;DHT22;6988;52.614;13.500;2023-08-21T20:42:14;20.60;99.90
13835;DHT22;6988;52.614;13.500;2023-08-21T20:47:06;20.50;99.90
13835;DHT22;6988;52.614;13.500;2023-08-21T20:51:59;20.40;99.90
13835;DHT22;6988;52.614;13.500;2023-08-21T20:56:51;20.40;99.90
13835;DHT22;6988;52.614;13.500;2023-08-21T21:01:43;20.20;99.90
13835;DHT22;6988;52.614;13.500;2023-08-21T21:06:34;20.30;99.90
13835;DHT22;6988;52.614;13.500;2023-08-21T21:11:28;20.20;99.90
13835;DHT22;6988;52.614;13.500;2023-08-21T21:16:20;20.10;99.90
13835;DHT22;6988;52.614;13.500;2023-08-21T21:21:11;20.10;99.90
13835;DHT22;6988;52.614;13.500;2023-08-21T21:26:03;20.00;99.90
13835;DHT22;6988;52.614;13.500;2023-08-21T21:30:57;20.00;99.90
13835;DHT22;6988;52.614;13.500;2023-08-21T21:35:50;19.90;99.90
13835;DHT22;6988;52.614;13.500;2023-08-21T21:40:42;19.80;99.90
13835;DHT22;6988;52.614;13.500;2023-08-21T22:04:00;19.50;99.90
13835;DHT22;6988;52.614;13.500;2023-08-21T22:08:51;19.40;99.90
13835;DHT22;6988;52.614;13.500;2023-08-21T22:13:43;19.30;99.90
13835;DHT22;6988;52.614;13.500;2023-08-21T22:18:35;19.30;99.90
13835;DHT22;6988;52.614;13.500;2023-08-21T22:23:28;19.30;99.90
13835;DHT22;6988;52.614;13.500;2023-08-21T22:28:20;19.30;99.90
13835;DHT22;6988;52.614;13.500;2023-08-21T22:33:12;19.30;99.90
13835;DHT22;6988;52.614;13.500;2023-08-21T22:38:04;19.40;99.90
13835;DHT22;6988;52.614;13.500;2023-08-21T22:42:57;19.40;99.90
13835;DHT22;6988;52.614;13.500;2023-08-21T22:47:49;19.10;99.90
13835;DHT22;6988;52.614;13.500;2023-08-21T22:52:40;18.90;99.90
13835;DHT22;6988;52.614;13.500;2023-08-21T22:57:32;18.80;99.90
13835;DHT22;6988;52.614;13.500;2023-08-21T23:02:26;18.90;99.90
13835;DHT22;6988;52.614;13.500;2023-08-21T23:07:18;18.90;99.90
13835;DHT22;6988;52.614;13.500;2023-08-21T23:12:10;18.90;99.90
13835;DHT22;6988;52.614;13.500;2023-08-21T23:17:03;18.90;99.90
13835;DHT22;6988;52.614;13.500;2023-08-21T23:21:56;19.00;99.90
13835;DHT22;6988;52.614;13.500;2023-08-21T23:26:48;19.00;99.90
13835;DHT22;6988;52.614;13.500;2023-08-21T23:31:40;19.00;99.90
13835;DHT22;6988;52.614;13.500;2023-08-21T23:36:32;19.00;99.90
13835;DHT22;6988;52.614;13.500;2023-08-21T23:41:25;19.00;99.90
13835;DHT22;6988;52.614;13.500;2023-08-21T23:46:17;18.90;99.90
13835;DHT22;6988;52.614;13.500;2023-08-21T23:51:10;18.80;99.90
13835;DHT22;6988;52.614;13.500;2023-08-21T23:56:04;18.80;99.90
